Aérodrome :
LOGIN :

S'inscrire | Disclaimer

   EN    FR    IT 

 










Légende :    VFR   VFR Marginal   IFR   IFR Intensif   IFR Très Intensif
Visi : 
Plafond : 
>= 8 km
>= 3000ft
5 à 8 km
1000 à 3000 ft
1500m à 5 km
500 à 1000 ft
800 à 1500m
200 à 500 ft
< 800m
< 200 ft
Symboles :   Orages  Brouillard  Fortes neiges  Fortes précipitations  Vent > 20 kt
SIGMETs :   Divers  Orages  Givrage  Turbulence  Onde Orograph.  Cendres Volcan.







- Altitude de l'aérodrome : 1276 ft
- Code IATA : STR


EDDS - Stuttgart

DERNIER METAR :
  • 221420Z 04016KT 9999 FEW040 SCT120 00/M06 Q1014 NOSIG

METARs EXPIRÉS :
  • 221350Z 05013KT 9999 FEW040 BKN120 01/M06 Q1014 NOSIG
  • 221320Z 06015KT 9999 FEW040 BKN090 01/M07 Q1014 NOSIG
  • 221250Z 07017KT 9999 FEW037 BKN085 00/M06 Q1014 NOSIG
  • 221220Z 05016KT 9999 FEW035 BKN095 00/M07 Q1014 NOSIG
  • 221150Z 05016KT 9999 FEW035 BKN095 00/M06 Q1014 NOSIG

TAF TAF EDDS
Valide du 22 à 12h jusqu'au 23 à 12h UTC


221100Z 2212/2312 05015G25KT 9999 SCT045
BECMG 2218/2221 04009KT
Pas de NOTAMs connus pour ce terrain.



MET'MAP, la Météo Aéronautique d'un coup d'oeil ! - Copyright ORBIFLY Décembre 2007 - Disclaimer

ORBIFLY MET'MAP TEAM :

Programmation & Développement : Alexandra Zaïnal
Conception & Développement : Baudouin d'Aumeries
Co-Programmation & Développement : Marc-Olivier Méhu
Soutien technique & logistique : Manuel Goepfert

Contact : metmap@orbifly.com




SOURCES & CREDITS :

   NOAA